Adams Field
KLIT : now visible

Airfield :











YOU CAN JOIN US ON...

 
LOGIN :

Register | Disclaimer

   EN    FR    IT 

 









Legend :    VFR   Marginal VFR   IFR   Intensive IFR   Very Intensive IFR
Visi :
Ceiling :
>= 8 km
>= 3000ft
5 to 8 km
1000 to 3000 ft
1500m to 5 km
500 to 1000 ft
800 to 1500m
200 to 500 ft
< 800m
< 200 ft
Symbols :   Thunderstorms  Fog  Heavy snow  Heavy precipitations  Wind > 20 kt






- Airport Elevation : 262 ft
- IATA code : LIT


KLIT - Adams Field

CURRENT METAR :
  • 290053Z 31005KT 10SM FEW070 18/09 A3002 RMK AO2 SLP166 T01780089

EXPIRED METARs :
  • 282353Z 32008KT 10SM FEW070 19/08 A3000 RMK AO2 SLP161 T01940083 10239 20194 53008
  • 282253Z 34011KT 10SM FEW070 22/08 A2998 RMK AO2 SLP155 T02170078

TAF KLIT
Valid from the 29 at 00:00 until the 30 at 00:00 UTC


282320Z 2900/2924 32009KT P6SM SCT070 SCT250
FM290200 VRB06KT P6SM SCT250
FM292300 VRB06KT P6SM FEW200
KZME FIR / North America



MET'MAP, your aeronautical weather chart ! - Copyright ORBIFLY December 2007 - Disclaimer

ORBIFLY MET'MAP TEAM :

Programming & Development : Alexandra Zaïnal
Concept & original design : Baudouin d'Aumeries
Assistance for programming : Marc-Olivier Méhu
Technical & hardware support : Manuel Goepfert

Contact : metmap@orbifly.com




SOURCES & CREDITS :

   NOAA       Earth
Advisory